sensor_id;sensor_type;location;lat;lon;timestamp;pressure;altitude;pressure_sealevel;temperature;humidity
58243;BME280;50118;53.232;8.252;2023-01-27T00:00:34;102408.19;;;3.02;100.00
58243;BME280;50118;53.232;8.252;2023-01-27T00:03:00;102408.41;;;2.95;100.00
58243;BME280;50118;53.232;8.252;2023-01-27T00:05:25;102411.09;;;2.94;100.00
58243;BME280;50118;53.232;8.252;2023-01-27T00:07:50;102416.06;;;3.03;100.00
58243;BME280;50118;53.232;8.252;2023-01-27T00:10:18;102409.91;;;3.03;100.00
58243;BME280;50118;53.232;8.252;2023-01-27T00:12:44;102404.63;;;3.03;100.00
58243;BME280;50118;53.232;8.252;2023-01-27T00:15:29;102412.38;;;3.07;100.00
58243;BME280;50118;53.232;8.252;2023-01-27T00:17:55;102409.00;;;3.04;100.00
58243;BME280;50118;53.232;8.252;2023-01-27T00:20:21;102408.94;;;3.05;100.00
58243;BME280;50118;53.232;8.252;2023-01-27T00:23:23;102406.47;;;3.01;100.00
58243;BME280;50118;53.232;8.252;2023-01-27T00:26:15;102404.75;;;2.99;100.00
58243;BME280;50118;53.232;8.252;2023-01-27T00:28:42;102418.94;;;2.95;100.00
58243;BME280;50118;53.232;8.252;2023-01-27T00:31:10;102416.19;;;2.98;100.00
58243;BME280;50118;53.232;8.252;2023-01-27T00:33:55;102412.53;;;3.03;100.00
58243;BME280;50118;53.232;8.252;2023-01-27T00:36:27;102418.00;;;2.98;100.00
58243;BME280;50118;53.232;8.252;2023-01-27T00:38:52;102418.72;;;3.02;100.00
58243;BME280;50118;53.232;8.252;2023-01-27T00:41:18;102417.25;;;3.18;100.00
58243;BME280;50118;53.232;8.252;2023-01-27T00:43:49;102417.28;;;3.16;100.00
58243;BME280;50118;53.232;8.252;2023-01-27T00:46:16;102418.38;;;3.11;100.00
58243;BME280;50118;53.232;8.252;2023-01-27T00:48:42;102417.63;;;3.07;100.00
58243;BME280;50118;53.232;8.252;2023-01-27T00:51:08;102423.06;;;3.03;100.00
58243;BME280;50118;53.232;8.252;2023-01-27T00:53:34;102426.34;;;3.09;100.00
58243;BME280;50118;53.232;8.252;2023-01-27T00:56:00;102421.91;;;3.10;100.00
58243;BME280;50118;53.232;8.252;2023-01-27T00:58:26;102435.38;;;3.02;100.00
58243;BME280;50118;53.232;8.252;2023-01-27T01:00:58;102437.97;;;3.04;100.00
58243;BME280;50118;53.232;8.252;2023-01-27T01:03:24;102428.38;;;3.01;100.00
58243;BME280;50118;53.232;8.252;2023-01-27T01:05:50;102439.78;;;3.02;100.00
58243;BME280;50118;53.232;8.252;2023-01-27T01:08:15;102440.50;;;3.07;100.00
58243;BME280;50118;53.232;8.252;2023-01-27T01:10:41;102439.78;;;3.02;100.00
58243;BME280;50118;53.232;8.252;2023-01-27T01:13:06;102444.19;;;3.01;100.00
58243;BME280;50118;53.232;8.252;2023-01-27T01:15:35;102443.22;;;3.04;100.00
58243;BME280;50118;53.232;8.252;2023-01-27T01:18:02;102454.59;;;3.04;100.00
58243;BME280;50118;53.232;8.252;2023-01-27T01:20:28;102443.13;;;3.07;100.00
58243;BME280;50118;53.232;8.252;2023-01-27T01:22:53;102453.31;;;3.16;100.00
58243;BME280;50118;53.232;8.252;2023-01-27T01:25:19;102447.94;;;3.19;100.00
58243;BME280;50118;53.232;8.252;2023-01-27T01:27:44;102465.44;;;3.20;100.00
58243;BME280;50118;53.232;8.252;2023-01-27T01:30:10;102458.41;;;3.21;100.00
58243;BME280;50118;53.232;8.252;2023-01-27T01:32:37;102447.94;;;3.19;100.00
58243;BME280;50118;53.232;8.252;2023-01-27T01:35:02;102456.63;;;3.21;100.00
58243;BME280;50118;53.232;8.252;2023-01-27T01:37:28;102460.47;;;3.12;100.00
58243;BME280;50118;53.232;8.252;2023-01-27T01:39:53;102456.84;;;3.15;100.00
58243;BME280;50118;53.232;8.252;2023-01-27T01:42:19;102453.41;;;3.13;100.00
58243;BME280;50118;53.232;8.252;2023-01-27T01:44:44;102465.56;;;3.17;100.00
58243;BME280;50118;53.232;8.252;2023-01-27T01:47:14;102466.81;;;3.07;100.00
58243;BME280;50118;53.232;8.252;2023-01-27T01:49:40;102455.59;;;3.02;100.00
58243;BME280;50118;53.232;8.252;2023-01-27T01:52:13;102459.97;;;3.01;100.00
58243;BME280;50118;53.232;8.252;2023-01-27T01:54:49;102459.03;;;3.04;100.00
58243;BME280;50118;53.232;8.252;2023-01-27T01:57:19;102456.50;;;3.01;100.00
58243;BME280;50118;53.232;8.252;2023-01-27T02:00:02;102461.06;;;2.95;100.00
58243;BME280;50118;53.232;8.252;2023-01-27T02:02:31;102462.91;;;2.93;100.00
58243;BME280;50118;53.232;8.252;2023-01-27T02:05:08;102462.78;;;2.96;100.00
58243;BME280;50118;53.232;8.252;2023-01-27T02:07:46;102461.16;;;2.92;100.00
58243;BME280;50118;53.232;8.252;2023-01-27T02:10:15;102460.47;;;2.87;100.00
58243;BME280;50118;53.232;8.252;2023-01-27T02:12:41;102467.66;;;2.82;100.00
58243;BME280;50118;53.232;8.252;2023-01-27T02:15:07;102462.41;;;2.82;100.00
58243;BME280;50118;53.232;8.252;2023-01-27T02:17:34;102464.94;;;2.85;100.00
58243;BME280;50118;53.232;8.252;2023-01-27T02:20:21;102464.81;;;2.88;100.00
58243;BME280;50118;53.232;8.252;2023-01-27T02:25:28;102466.56;;;2.88;100.00
58243;BME280;50118;53.232;8.252;2023-01-27T02:27:56;102470.28;;;2.82;100.00
58243;BME280;50118;53.232;8.252;2023-01-27T02:30:22;102478.13;;;2.84;100.00
58243;BME280;50118;53.232;8.252;2023-01-27T02:32:48;102477.19;;;2.86;100.00
58243;BME280;50118;53.232;8.252;2023-01-27T02:35:16;102472.03;;;2.83;100.00
58243;BME280;50118;53.232;8.252;2023-01-27T02:37:44;102477.47;;;2.77;100.00
58243;BME280;50118;53.232;8.252;2023-01-27T02:40:11;102478.28;;;2.79;100.00
58243;BME280;50118;53.232;8.252;2023-01-27T02:42:37;102484.47;;;2.78;100.00
58243;BME280;50118;53.232;8.252;2023-01-27T02:45:03;102471.47;;;2.73;100.00
58243;BME280;50118;53.232;8.252;2023-01-27T02:47:29;102471.09;;;2.84;100.00
58243;BME280;50118;53.232;8.252;2023-01-27T02:49:54;102474.81;;;2.78;100.00
58243;BME280;50118;53.232;8.252;2023-01-27T02:52:22;102477.38;;;2.80;100.00
58243;BME280;50118;53.232;8.252;2023-01-27T02:54:47;102477.53;;;2.75;100.00
58243;BME280;50118;53.232;8.252;2023-01-27T02:57:13;102489.94;;;2.72;100.00
58243;BME280;50118;53.232;8.252;2023-01-27T02:59:38;102489.84;;;2.75;100.00
58243;BME280;50118;53.232;8.252;2023-01-27T03:02:04;102492.66;;;2.69;100.00
58243;BME280;50118;53.232;8.252;2023-01-27T03:04:29;102490.25;;;2.63;100.00
58243;BME280;50118;53.232;8.252;2023-01-27T03:06:54;102495.72;;;2.56;100.00
58243;BME280;50118;53.232;8.252;2023-01-27T03:09:20;102497.44;;;2.57;100.00
58243;BME280;50118;53.232;8.252;2023-01-27T03:11:45;102493.97;;;2.55;100.00
58243;BME280;50118;53.232;8.252;2023-01-27T03:14:29;102489.78;;;2.50;100.00
58243;BME280;50118;53.232;8.252;2023-01-27T03:17:13;102497.81;;;2.45;100.00
58243;BME280;50118;53.232;8.252;2023-01-27T03:19:57;102503.97;;;2.46;100.00
58243;BME280;50118;53.232;8.252;2023-01-27T03:22:23;102504.91;;;2.43;100.00
58243;BME280;50118;53.232;8.252;2023-01-27T03:24:48;102509.53;;;2.35;100.00
58243;BME280;50118;53.232;8.252;2023-01-27T03:27:14;102507.03;;;2.32;100.00
58243;BME280;50118;53.232;8.252;2023-01-27T03:29:39;102512.56;;;2.22;100.00
58243;BME280;50118;53.232;8.252;2023-01-27T03:32:23;102508.31;;;2.18;100.00
58243;BME280;50118;53.232;8.252;2023-01-27T03:34:49;102510.28;;;2.12;100.00
58243;BME280;50118;53.232;8.252;2023-01-27T03:37:14;102516.31;;;2.15;100.00
58243;BME280;50118;53.232;8.252;2023-01-27T03:39:58;102524.31;;;2.11;100.00
58243;BME280;50118;53.232;8.252;2023-01-27T03:42:42;102528.78;;;2.09;100.00
58243;BME280;50118;53.232;8.252;2023-01-27T03:45:26;102534.06;;;2.07;100.00
58243;BME280;50118;53.232;8.252;2023-01-27T03:48:11;102534.06;;;2.07;100.00
58243;BME280;50118;53.232;8.252;2023-01-27T03:50:37;102538.47;;;2.07;100.00
58243;BME280;50118;53.232;8.252;2023-01-27T03:53:10;102540.31;;;2.04;100.00
58243;BME280;50118;53.232;8.252;2023-01-27T03:55:37;102535.97;;;2.02;100.00
58243;BME280;50118;53.232;8.252;2023-01-27T03:58:03;102542.28;;;1.96;100.00
58243;BME280;50118;53.232;8.252;2023-01-27T04:00:49;102532.03;;;1.87;100.00
58243;BME280;50118;53.232;8.252;2023-01-27T04:03:15;102540.09;;;1.81;100.00
58243;BME280;50118;53.232;8.252;2023-01-27T04:06:06;102535.78;;;1.78;100.00
58243;BME280;50118;53.232;8.252;2023-01-27T04:08:51;102536.66;;;1.79;100.00
58243;BME280;50118;53.232;8.252;2023-01-27T04:11:17;102537.47;;;1.81;100.00
58243;BME280;50118;53.232;8.252;2023-01-27T04:14:05;102541.84;;;1.80;100.00
58243;BME280;50118;53.232;8.252;2023-01-27T04:16:31;102539.09;;;1.85;100.00
58243;BME280;50118;53.232;8.252;2023-01-27T04:18:57;102541.84;;;1.80;100.00
58243;BME280;50118;53.232;8.252;2023-01-27T04:21:23;102545.44;;;1.78;100.00
58243;BME280;50118;53.232;8.252;2023-01-27T04:23:50;102541.00;;;1.80;100.00
58243;BME280;50118;53.232;8.252;2023-01-27T04:26:15;102543.75;;;1.75;100.00
58243;BME280;50118;53.232;8.252;2023-01-27T04:28:41;102534.09;;;1.77;100.00
58243;BME280;50118;53.232;8.252;2023-01-27T04:31:06;102540.22;;;1.76;100.00
58243;BME280;50118;53.232;8.252;2023-01-27T04:33:31;102555.16;;;1.76;100.00
58243;BME280;50118;53.232;8.252;2023-01-27T04:35:57;102552.63;;;1.71;100.00
58243;BME280;50118;53.232;8.252;2023-01-27T04:38:23;102553.41;;;1.75;100.00
58243;BME280;50118;53.232;8.252;2023-01-27T04:40:48;102548.97;;;1.77;100.00
58243;BME280;50118;53.232;8.252;2023-01-27T04:43:13;102538.41;;;1.78;100.00
58243;BME280;50118;53.232;8.252;2023-01-27T04:45:39;102554.13;;;1.80;100.00
58243;BME280;50118;53.232;8.252;2023-01-27T04:48:05;102548.00;;;1.81;100.00
58243;BME280;50118;53.232;8.252;2023-01-27T04:50:31;102550.75;;;1.76;100.00
58243;BME280;50118;53.232;8.252;2023-01-27T04:52:56;102552.38;;;1.80;100.00
58243;BME280;50118;53.232;8.252;2023-01-27T04:55:22;102548.88;;;1.80;100.00
58243;BME280;50118;53.232;8.252;2023-01-27T04:57:47;102559.34;;;1.81;100.00
58243;BME280;50118;53.232;8.252;2023-01-27T05:00:13;102558.63;;;1.76;100.00
58243;BME280;50118;53.232;8.252;2023-01-27T05:02:39;102563.88;;;1.76;100.00
58243;BME280;50118;53.232;8.252;2023-01-27T05:05:05;102564.78;;;1.75;100.00
58243;BME280;50118;53.232;8.252;2023-01-27T05:07:31;102570.13;;;1.72;100.00
58243;BME280;50118;53.232;8.252;2023-01-27T05:09:57;102563.16;;;1.71;100.00
58243;BME280;50118;53.232;8.252;2023-01-27T05:12:22;102558.03;;;1.66;100.00
58243;BME280;50118;53.232;8.252;2023-01-27T05:14:48;102569.44;;;1.65;100.00
58243;BME280;50118;53.232;8.252;2023-01-27T05:17:13;102572.03;;;1.67;100.00
58243;BME280;50118;53.232;8.252;2023-01-27T05:19:38;102573.75;;;1.68;100.00
58243;BME280;50118;53.232;8.252;2023-01-27T05:22:04;102570.22;;;1.69;100.00
58243;BME280;50118;53.232;8.252;2023-01-27T05:24:29;102571.16;;;1.66;100.00
58243;BME280;50118;53.232;8.252;2023-01-27T05:26:55;102574.91;;;1.58;100.00
58243;BME280;50118;53.232;8.252;2023-01-27T05:29:22;102575.63;;;1.63;100.00
58243;BME280;50118;53.232;8.252;2023-01-27T05:31:47;102580.13;;;1.59;100.00
58243;BME280;50118;53.232;8.252;2023-01-27T05:34:13;102587.00;;;1.63;100.00
58243;BME280;50118;53.232;8.252;2023-01-27T05:36:39;102595.56;;;1.70;100.00
58243;BME280;50118;53.232;8.252;2023-01-27T05:39:05;102585.97;;;1.69;100.00
58243;BME280;50118;53.232;8.252;2023-01-27T05:41:30;102597.34;;;1.70;100.00
58243;BME280;50118;53.232;8.252;2023-01-27T05:43:56;102605.19;;;1.71;100.00
58243;BME280;50118;53.232;8.252;2023-01-27T05:46:24;102596.41;;;1.72;100.00
58243;BME280;50118;53.232;8.252;2023-01-27T05:48:53;102602.56;;;1.71;100.00
58243;BME280;50118;53.232;8.252;2023-01-27T05:51:20;102610.44;;;1.71;100.00
58243;BME280;50118;53.232;8.252;2023-01-27T05:53:46;102594.94;;;1.62;100.00
58243;BME280;50118;53.232;8.252;2023-01-27T05:56:13;102594.97;;;1.60;100.00
58243;BME280;50118;53.232;8.252;2023-01-27T05:58:39;102598.38;;;1.64;100.00
58243;BME280;50118;53.232;8.252;2023-01-27T06:01:29;102596.66;;;1.63;100.00
58243;BME280;50118;53.232;8.252;2023-01-27T06:03:55;102585.28;;;1.62;100.00
58243;BME280;50118;53.232;8.252;2023-01-27T06:06:23;102587.06;;;1.62;100.00
58243;BME280;50118;53.232;8.252;2023-01-27T06:08:49;102601.00;;;1.64;100.00
58243;BME280;50118;53.232;8.252;2023-01-27T06:11:16;102604.50;;;1.64;100.00
58243;BME280;50118;53.232;8.252;2023-01-27T06:13:42;102612.38;;;1.64;100.00
58243;BME280;50118;53.232;8.252;2023-01-27T06:16:09;102614.06;;;1.67;100.00
58243;BME280;50118;53.232;8.252;2023-01-27T06:18:36;102618.31;;;1.71;100.00
58243;BME280;50118;53.232;8.252;2023-01-27T06:21:03;102628.75;;;1.74;100.00
58243;BME280;50118;53.232;8.252;2023-01-27T06:23:30;102620.88;;;1.74;100.00
58243;BME280;50118;53.232;8.252;2023-01-27T06:26:00;102626.28;;;1.68;100.00
58243;BME280;50118;53.232;8.252;2023-01-27T06:28:26;102622.78;;;1.69;100.00
58243;BME280;50118;53.232;8.252;2023-01-27T06:30:52;102626.34;;;1.65;100.00
58243;BME280;50118;53.232;8.252;2023-01-27T06:33:17;102628.91;;;1.68;100.00
58243;BME280;50118;53.232;8.252;2023-01-27T06:35:43;102622.00;;;1.65;100.00
58243;BME280;50118;53.232;8.252;2023-01-27T06:38:11;102623.69;;;1.66;100.00
58243;BME280;50118;53.232;8.252;2023-01-27T06:40:37;102627.22;;;1.67;100.00
58243;BME280;50118;53.232;8.252;2023-01-27T06:43:03;102628.03;;;1.69;100.00
58243;BME280;50118;53.232;8.252;2023-01-27T06:45:28;102635.09;;;1.67;100.00
58243;BME280;50118;53.232;8.252;2023-01-27T06:47:58;102636.88;;;1.65;100.00
58243;BME280;50118;53.232;8.252;2023-01-27T06:50:25;102637.00;;;1.60;100.00
58243;BME280;50118;53.232;8.252;2023-01-27T06:52:51;102644.78;;;1.63;100.00
58243;BME280;50118;53.232;8.252;2023-01-27T06:55:17;102654.28;;;1.69;100.00
58243;BME280;50118;53.232;8.252;2023-01-27T06:57:44;102658.72;;;1.67;100.00
58243;BME280;50118;53.232;8.252;2023-01-27T07:00:13;102664.94;;;1.63;100.00
58243;BME280;50118;53.232;8.252;2023-01-27T07:02:38;102667.34;;;1.72;100.00
58243;BME280;50118;53.232;8.252;2023-01-27T07:05:04;102671.75;;;1.70;100.00
58243;BME280;50118;53.232;8.252;2023-01-27T07:07:29;102673.66;;;1.65;100.00
58243;BME280;50118;53.232;8.252;2023-01-27T07:09:55;102673.75;;;1.62;100.00
58243;BME280;50118;53.232;8.252;2023-01-27T07:12:20;102679.00;;;1.62;100.00
58243;BME280;50118;53.232;8.252;2023-01-27T07:14:46;102679.00;;;1.62;100.00
58243;BME280;50118;53.232;8.252;2023-01-27T07:17:11;102673.66;;;1.65;100.00
58243;BME280;50118;53.232;8.252;2023-01-27T07:19:36;102673.56;;;1.68;100.00
58243;BME280;50118;53.232;8.252;2023-01-27T07:22:02;102684.00;;;1.71;100.00
58243;BME280;50118;53.232;8.252;2023-01-27T07:24:27;102688.41;;;1.71;100.00
58243;BME280;50118;53.232;8.252;2023-01-27T07:26:53;102692.63;;;1.76;100.00
58243;BME280;50118;53.232;8.252;2023-01-27T07:29:18;102693.53;;;1.75;100.00
58243;BME280;50118;53.232;8.252;2023-01-27T07:31:44;102692.78;;;1.70;100.00
58243;BME280;50118;53.232;8.252;2023-01-27T07:34:09;102701.41;;;1.75;100.00
58243;BME280;50118;53.232;8.252;2023-01-27T07:36:35;102705.81;;;1.75;100.00
58243;BME280;50118;53.232;8.252;2023-01-27T07:39:00;102701.41;;;1.75;100.00
58243;BME280;50118;53.232;8.252;2023-01-27T07:41:26;102701.50;;;1.72;100.00
58243;BME280;50118;53.232;8.252;2023-01-27T07:43:51;102704.97;;;1.74;100.00
58243;BME280;50118;53.232;8.252;2023-01-27T07:46:17;102704.03;;;1.75;100.00
58243;BME280;50118;53.232;8.252;2023-01-27T07:48:42;102705.69;;;1.79;100.00
58243;BME280;50118;53.232;8.252;2023-01-27T07:51:11;102714.44;;;1.80;100.00
58243;BME280;50118;53.232;8.252;2023-01-27T07:53:38;102710.22;;;1.74;100.00
58243;BME280;50118;53.232;8.252;2023-01-27T07:56:04;102710.94;;;1.79;100.00
58243;BME280;50118;53.232;8.252;2023-01-27T07:58:30;102720.41;;;1.86;100.00
58243;BME280;50118;53.232;8.252;2023-01-27T08:00:55;102717.00;;;1.83;100.00
58243;BME280;50118;53.232;8.252;2023-01-27T08:03:23;102709.81;;;1.90;100.00
58243;BME280;50118;53.232;8.252;2023-01-27T08:05:49;102711.66;;;1.86;100.00
58243;BME280;50118;53.232;8.252;2023-01-27T08:08:14;102716.00;;;1.87;100.00
58243;BME280;50118;53.232;8.252;2023-01-27T08:10:40;102718.59;;;1.89;100.00
58243;BME280;50118;53.232;8.252;2023-01-27T08:13:06;102720.34;;;1.88;100.00
58243;BME280;50118;53.232;8.252;2023-01-27T08:15:31;102723.84;;;1.89;100.00
58243;BME280;50118;53.232;8.252;2023-01-27T08:17:58;102721.25;;;1.87;100.00
58243;BME280;50118;53.232;8.252;2023-01-27T08:20:26;102727.38;;;1.88;100.00
58243;BME280;50118;53.232;8.252;2023-01-27T08:22:52;102716.78;;;1.91;100.00
58243;BME280;50118;53.232;8.252;2023-01-27T08:25:18;102725.50;;;1.93;100.00
58243;BME280;50118;53.232;8.252;2023-01-27T08:27:43;102725.56;;;1.90;100.00
58243;BME280;50118;53.232;8.252;2023-01-27T08:30:09;102721.94;;;1.94;100.00
58243;BME280;50118;53.232;8.252;2023-01-27T08:32:35;102735.84;;;1.99;100.00
58243;BME280;50118;53.232;8.252;2023-01-27T08:35:00;102739.28;;;2.01;100.00
58243;BME280;50118;53.232;8.252;2023-01-27T08:37:26;102735.59;;;2.08;100.00
58243;BME280;50118;53.232;8.252;2023-01-27T08:39:51;102733.19;;;1.99;100.00
58243;BME280;50118;53.232;8.252;2023-01-27T08:42:17;102731.28;;;2.05;100.00
58243;BME280;50118;53.232;8.252;2023-01-27T08:44:42;102732.16;;;2.06;100.00
58243;BME280;50118;53.232;8.252;2023-01-27T08:47:08;102736.47;;;2.09;100.00
58243;BME280;50118;53.232;8.252;2023-01-27T08:49:33;102748.56;;;2.14;100.00
58243;BME280;50118;53.232;8.252;2023-01-27T08:51:59;102747.81;;;2.09;100.00
58243;BME280;50118;53.232;8.252;2023-01-27T08:54:24;102750.38;;;2.12;100.00
58243;BME280;50118;53.232;8.252;2023-01-27T08:56:49;102743.41;;;2.11;100.00
58243;BME280;50118;53.232;8.252;2023-01-27T08:59:15;102758.13;;;2.18;100.00
58243;BME280;50118;53.232;8.252;2023-01-27T09:01:41;102758.88;;;2.22;100.00
58243;BME280;50118;53.232;8.252;2023-01-27T09:04:07;102761.59;;;2.19;100.00
58243;BME280;50118;53.232;8.252;2023-01-27T09:06:32;102764.06;;;2.25;100.00
58243;BME280;50118;53.232;8.252;2023-01-27T09:08:58;102762.94;;;2.34;100.00
58243;BME280;50118;53.232;8.252;2023-01-27T09:11:34;102754.84;;;2.41;100.00
58243;BME280;50118;53.232;8.252;2023-01-27T09:13:59;102766.41;;;2.36;100.00
58243;BME280;50118;53.232;8.252;2023-01-27T09:16:25;102767.25;;;2.36;100.00
58243;BME280;50118;53.232;8.252;2023-01-27T09:18:51;102766.56;;;2.30;100.00
58243;BME280;50118;53.232;8.252;2023-01-27T09:21:16;102775.09;;;2.38;100.00
58243;BME280;50118;53.232;8.252;2023-01-27T09:23:41;102781.06;;;2.45;100.00
58243;BME280;50118;53.232;8.252;2023-01-27T09:26:07;102780.28;;;2.41;100.00
58243;BME280;50118;53.232;8.252;2023-01-27T09:28:32;102781.09;;;2.43;100.00
58243;BME280;50118;53.232;8.252;2023-01-27T09:30:58;102777.69;;;2.39;100.00
58243;BME280;50118;53.232;8.252;2023-01-27T09:33:24;102782.72;;;2.49;100.00
58243;BME280;50118;53.232;8.252;2023-01-27T09:36:00;102775.56;;;2.54;100.00
58243;BME280;50118;53.232;8.252;2023-01-27T09:38:27;102773.78;;;2.54;100.00
58243;BME280;50118;53.232;8.252;2023-01-27T09:46:07;102787.63;;;2.61;100.00
58243;BME280;50118;53.232;8.252;2023-01-27T10:00:58;102785.28;;;2.50;100.00
58243;BME280;50118;53.232;8.252;2023-01-27T10:03:34;102778.91;;;2.59;100.00
58243;BME280;50118;53.232;8.252;2023-01-27T10:11:38;102770.78;;;2.67;100.00
58243;BME280;50118;53.232;8.252;2023-01-27T10:14:37;102776.06;;;2.67;100.00
58243;BME280;50118;53.232;8.252;2023-01-27T10:17:34;102775.44;;;2.57;100.00
58243;BME280;50118;53.232;8.252;2023-01-27T10:25:30;102765.97;;;2.51;100.00
58243;BME280;50118;53.232;8.252;2023-01-27T10:28:10;102762.31;;;2.55;100.00
58243;BME280;50118;53.232;8.252;2023-01-27T10:30:37;102765.59;;;2.64;100.00
58243;BME280;50118;53.232;8.252;2023-01-27T10:33:16;102768.81;;;2.75;100.00
58243;BME280;50118;53.232;8.252;2023-01-27T10:35:50;102774.50;;;2.59;100.00
58243;BME280;50118;53.232;8.252;2023-01-27T10:38:31;102774.19;;;2.70;100.00
58243;BME280;50118;53.232;8.252;2023-01-27T10:41:06;102774.16;;;2.72;100.00
58243;BME280;50118;53.232;8.252;2023-01-27T10:53:55;102772.72;;;2.60;100.00
58243;BME280;50118;53.232;8.252;2023-01-27T11:00:00;102776.97;;;2.66;100.00
58243;BME280;50118;53.232;8.252;2023-01-27T11:02:41;102777.91;;;2.63;100.00
58243;BME280;50118;53.232;8.252;2023-01-27T11:05:33;102775.88;;;2.73;100.00
58243;BME280;50118;53.232;8.252;2023-01-27T11:08:04;102779.50;;;2.69;100.00
58243;BME280;50118;53.232;8.252;2023-01-27T11:10:43;102774.03;;;2.76;100.00
58243;BME280;50118;53.232;8.252;2023-01-27T11:13:30;102766.00;;;2.81;100.00
58243;BME280;50118;53.232;8.252;2023-01-27T11:15:56;102770.94;;;2.92;100.00
58243;BME280;50118;53.232;8.252;2023-01-27T11:18:25;102767.53;;;2.88;100.00
58243;BME280;50118;53.232;8.252;2023-01-27T11:20:55;102761.72;;;2.77;100.00
58243;BME280;50118;53.232;8.252;2023-01-27T11:23:26;102769.69;;;2.74;100.00
58243;BME280;50118;53.232;8.252;2023-01-27T11:26:32;102767.94;;;2.74;100.00
58243;BME280;50118;53.232;8.252;2023-01-27T11:35:12;102768.53;;;2.84;100.00
58243;BME280;50118;53.232;8.252;2023-01-27T11:37:40;102766.97;;;2.77;100.00
58243;BME280;50118;53.232;8.252;2023-01-27T11:40:49;102772.34;;;2.74;100.00
58243;BME280;50118;53.232;8.252;2023-01-27T11:43:10;102760.88;;;2.76;100.00
58243;BME280;50118;53.232;8.252;2023-01-27T11:45:40;102766.00;;;2.81;100.00
58243;BME280;50118;53.232;8.252;2023-01-27T11:48:10;102763.53;;;2.75;100.00
58243;BME280;50118;53.232;8.252;2023-01-27T11:50:40;102760.88;;;2.76;100.00
58243;BME280;50118;53.232;8.252;2023-01-27T11:55:57;102764.88;;;2.58;100.00
58243;BME280;50118;53.232;8.252;2023-01-27T11:58:29;102760.19;;;2.70;100.00
58243;BME280;50118;53.232;8.252;2023-01-27T12:00:59;102756.28;;;2.83;100.00
58243;BME280;50118;53.232;8.252;2023-01-27T12:03:48;102755.78;;;2.70;100.00
58243;BME280;50118;53.232;8.252;2023-01-27T12:17:21;102746.06;;;2.72;100.00
58243;BME280;50118;53.232;8.252;2023-01-27T12:19:48;102742.41;;;2.78;100.00
58243;BME280;50118;53.232;8.252;2023-01-27T12:22:23;102736.38;;;2.74;100.00
58243;BME280;50118;53.232;8.252;2023-01-27T12:24:54;102744.31;;;2.73;100.00
58243;BME280;50118;53.232;8.252;2023-01-27T12:27:23;102745.81;;;2.82;100.00
58243;BME280;50118;53.232;8.252;2023-01-27T12:29:55;102737.09;;;2.79;100.00
58243;BME280;50118;53.232;8.252;2023-01-27T12:32:42;102741.13;;;2.61;100.00
58243;BME280;50118;53.232;8.252;2023-01-27T12:35:30;102742.56;;;2.72;100.00
58243;BME280;50118;53.232;8.252;2023-01-27T12:38:00;102746.13;;;2.71;100.00
58243;BME280;50118;53.232;8.252;2023-01-27T12:40:28;102741.69;;;2.73;100.00
58243;BME280;50118;53.232;8.252;2023-01-27T12:43:10;102739.03;;;2.73;100.00
58243;BME280;50118;53.232;8.252;2023-01-27T12:45:37;102741.03;;;2.65;100.00
58243;BME280;50118;53.232;8.252;2023-01-27T12:50:33;102737.59;;;2.63;100.00
58243;BME280;50118;53.232;8.252;2023-01-27T12:53:12;102744.41;;;2.70;100.00
58243;BME280;50118;53.232;8.252;2023-01-27T12:56:26;102741.97;;;2.62;100.00
58243;BME280;50118;53.232;8.252;2023-01-27T12:58:42;102740.63;;;2.49;100.00
58243;BME280;50118;53.232;8.252;2023-01-27T13:03:44;102742.09;;;2.59;100.00
58243;BME280;50118;53.232;8.252;2023-01-27T13:06:18;102745.66;;;2.56;100.00
58243;BME280;50118;53.232;8.252;2023-01-27T13:08:46;102748.03;;;2.66;100.00
58243;BME280;50118;53.232;8.252;2023-01-27T13:11:14;102749.13;;;2.57;100.00
58243;BME280;50118;53.232;8.252;2023-01-27T13:13:48;102745.59;;;2.58;100.00
58243;BME280;50118;53.232;8.252;2023-01-27T13:16:26;102736.03;;;2.55;100.00
58243;BME280;50118;53.232;8.252;2023-01-27T13:18:55;102729.81;;;2.58;100.00
58243;BME280;50118;53.232;8.252;2023-01-27T13:21:24;102735.78;;;2.65;100.00
58243;BME280;50118;53.232;8.252;2023-01-27T13:23:52;102736.88;;;2.57;100.00
58243;BME280;50118;53.232;8.252;2023-01-27T13:26:24;102741.13;;;2.61;100.00
58243;BME280;50118;53.232;8.252;2023-01-27T13:33:59;102739.94;;;2.42;100.00
58243;BME280;50118;53.232;8.252;2023-01-27T13:41:42;102740.19;;;2.33;100.00
58243;BME280;50118;53.232;8.252;2023-01-27T13:44:27;102739.09;;;2.40;100.00
58243;BME280;50118;53.232;8.252;2023-01-27T13:46:58;102747.19;;;2.34;100.00
58243;BME280;50118;53.232;8.252;2023-01-27T13:51:51;102740.88;;;2.39;100.00
58243;BME280;50118;53.232;8.252;2023-01-27T13:54:16;102737.34;;;2.40;100.00
58243;BME280;50118;53.232;8.252;2023-01-27T14:10:39;102724.22;;;2.39;100.00
58243;BME280;50118;53.232;8.252;2023-01-27T14:16:36;102743.38;;;2.44;100.00
58243;BME280;50118;53.232;8.252;2023-01-27T14:31:17;102752.09;;;2.46;100.00
58243;BME280;50118;53.232;8.252;2023-01-27T14:33:53;102747.34;;;2.28;100.00
58243;BME280;50118;53.232;8.252;2023-01-27T14:36:39;102745.31;;;2.37;100.00
58243;BME280;50118;53.232;8.252;2023-01-27T14:42:37;102747.25;;;2.31;100.00
58243;BME280;50118;53.232;8.252;2023-01-27T14:50:37;102754.13;;;2.35;100.00
58243;BME280;50118;53.232;8.252;2023-01-27T14:55:49;102745.19;;;2.42;100.00
58243;BME280;50118;53.232;8.252;2023-01-27T15:09:19;102755.59;;;2.14;100.00
58243;BME280;50118;53.232;8.252;2023-01-27T15:12:19;102760.06;;;2.10;100.00
58243;BME280;50118;53.232;8.252;2023-01-27T15:25:34;102766.72;;;1.91;100.00
58243;BME280;50118;53.232;8.252;2023-01-27T15:28:01;102774.34;;;2.01;100.00